Time;durP1;ratioP1;P1;durP2;ratioP2;P2;SDS_P1;SDS_P2;PMS_P1;PMS_P2;Temp;Humidity;BMP_temperature;BMP_pressure;BME280_temperature;BME280_humidity;BME280_pressure;Samples;Min_cycle;Max_cycle;Signal;HPM_P1;HPM_P2
2024/01/28 00:03:40;;;;;;;;;;;;;;;;;;10489568;28;20059;-76
2024/01/28 00:08:48;;;;;;;6.67;2.90;;;;;;;;;;10481964;28;20074;-77
2024/01/28 00:13:53;;;;;;;6.63;2.53;;;;;;;;;;10481010;28;20067;-77
2024/01/28 00:19:05;;;;;;;5.00;2.67;;;;;;;;;;10450612;28;20155;-76
2024/01/28 00:24:14;;;;;;;8.70;3.77;;;;;;;;;;10475898;28;20413;-76
2024/01/28 00:29:26;;;;;;;5.63;2.60;;;;;;;;;;10486879;28;20122;-78
2024/01/28 00:34:32;;;;;;;3.13;1.73;;;;;;;;;;10478834;28;20045;-78
2024/01/28 00:39:40;;;;;;;5.47;2.88;;;;;;;;;;10477917;28;20056;-79
2024/01/28 00:44:49;;;;;;;5.73;2.50;;;;;;;;;;10471736;28;20052;-78
2024/01/28 00:49:54;;;;;;;2.30;1.30;;;;;;;;;;10446094;28;20056;-77
2024/01/28 00:55:07;;;;;;;0.37;0.37;;;;;;;;;;10460717;28;20041;-78
2024/01/28 01:00:10;;;;;;;6.53;1.90;;;;;;;;;;10453759;28;20186;-79
2024/01/28 01:05:19;;;;;;;8.20;3.33;;;;;;;;;;10454512;28;20047;-78
2024/01/28 01:10:32;;;;;;;2.60;1.23;;;;;;;;;;10461634;28;20899;-79
2024/01/28 01:15:36;;;;;;;5.70;3.27;;;;;;;;;;10472211;28;20067;-77
2024/01/28 01:20:49;;;;;;;8.17;3.10;;;;;;;;;;10457712;28;20071;-78
2024/01/28 01:25:57;;;;;;;7.20;2.47;;;;;;;;;;10478317;28;20067;-77
2024/01/28 01:31:09;;;;;;;4.33;2.30;;;;;;;;;;10471740;28;20158;-78
2024/01/28 01:36:13;;;;;;;;;;;;;;;;;;10478174;28;20134;-77
2024/01/28 01:41:23;;;;;;;5.67;1.93;;;;;;;;;;10475361;28;19927;-78
2024/01/28 01:46:30;;;;;;;5.87;2.47;;;;;;;;;;10478323;28;20085;-78
2024/01/28 01:51:45;;;;;;;7.17;2.53;;;;;;;;;;10474525;28;20482;-78
2024/01/28 01:57:00;;;;;;;4.67;2.23;;;;;;;;;;10455268;28;20489;-77
2024/01/28 02:02:03;;;;;;;4.87;2.00;;;;;;;;;;10455849;28;21238;-76
2024/01/28 02:07:14;;;;;;;5.67;2.37;;;;;;;;;;10473935;28;20036;-75
2024/01/28 02:12:22;;;;;;;13.77;3.47;;;;;;;;;;10457419;28;20045;-76
2024/01/28 02:17:27;;;;;;;5.20;2.17;;;;;;;;;;10474442;28;20048;-76
2024/01/28 02:22:40;;;;;;;3.80;1.75;;;;;;;;;;10458720;28;20059;-77
2024/01/28 02:27:56;;;;;;;2.77;1.60;;;;;;;;;;10473431;28;20045;-77
2024/01/28 02:33:00;;;;;;;2.07;1.23;;;;;;;;;;10454431;28;20046;-75
2024/01/28 02:38:06;;;;;;;6.15;2.75;;;;;;;;;;10458674;28;20489;-77
2024/01/28 02:43:20;;;;;;;3.27;0.93;;;;;;;;;;10456788;28;20068;-78
2024/01/28 02:48:27;;;;;;;2.60;1.30;;;;;;;;;;10482044;28;20120;-77
2024/01/28 02:53:30;;;;;;;3.87;2.00;;;;;;;;;;10453695;28;20600;-76
2024/01/28 02:58:34;;;;;;;;;;;;;;;;;;10461247;28;20851;-77
2024/01/28 03:03:45;;;;;;;2.03;1.17;;;;;;;;;;10477397;28;19926;-77
2024/01/28 03:08:49;;;;;;;2.47;1.20;;;;;;;;;;10459859;28;20036;-78
2024/01/28 03:13:58;;;;;;;3.50;1.07;;;;;;;;;;10458332;28;20048;-78
2024/01/28 03:19:23;;;;;;;5.40;1.93;;;;;;;;;;10455589;28;20032;-78
2024/01/28 03:24:29;;;;;;;3.17;1.67;;;;;;;;;;10479399;28;20067;-77
2024/01/28 03:29:38;;;;;;;2.77;1.53;;;;;;;;;;10459190;28;20056;-79
2024/01/28 03:34:46;;;;;;;2.23;1.77;;;;;;;;;;10478068;28;20506;-78
2024/01/28 03:39:50;;;;;;;5.03;2.83;;;;;;;;;;10462682;28;20052;-78
2024/01/28 03:44:58;;;;;;;5.07;1.67;;;;;;;;;;10480068;28;21508;-78
2024/01/28 03:50:06;;;;;;;2.60;1.67;;;;;;;;;;10479125;28;20274;-78
2024/01/28 03:55:10;;;;;;;2.00;1.00;;;;;;;;;;10442970;28;20040;-78
2024/01/28 04:00:15;;;;;;;8.83;2.67;;;;;;;;;;10486607;28;20067;-78
2024/01/28 04:05:22;;;;;;;4.80;1.77;;;;;;;;;;10464955;28;20055;-78
2024/01/28 04:10:29;;;;;;;4.53;2.20;;;;;;;;;;10455406;28;20031;-78
2024/01/28 04:15:45;;;;;;;1.27;0.80;;;;;;;;;;10474865;28;20043;-77
2024/01/28 04:20:56;;;;;;;7.37;2.27;;;;;;;;;;10478747;28;20064;-77
2024/01/28 04:26:00;;;;;;;5.03;2.47;;;;;;;;;;10490590;28;20045;-77
2024/01/28 04:31:05;;;;;;;3.47;2.13;;;;;;;;;;10469026;28;20047;-78
2024/01/28 04:36:11;;;;;;;4.30;2.10;;;;;;;;;;10476762;28;20354;-77
2024/01/28 04:41:17;;;;;;;4.10;2.10;;;;;;;;;;10461068;28;20210;-78
2024/01/28 04:46:22;;;;;;;0.97;0.73;;;;;;;;;;10441273;28;20119;-78
2024/01/28 04:51:30;;;;;;;2.70;1.40;;;;;;;;;;10479233;28;20490;-76
2024/01/28 04:56:37;;;;;;;2.13;0.87;;;;;;;;;;10476172;28;20060;-77
2024/01/28 05:01:54;;;;;;;6.18;2.53;;;;;;;;;;10455793;28;20055;-76
2024/01/28 05:07:04;;;;;;;3.70;2.33;;;;;;;;;;10455319;28;20048;-78
2024/01/28 05:12:18;;;;;;;3.27;1.67;;;;;;;;;;10476189;28;20542;-79
2024/01/28 05:17:23;;;;;;;1.30;1.13;;;;;;;;;;10480161;28;20051;-77
2024/01/28 05:22:29;;;;;;;1.90;1.60;;;;;;;;;;10460081;28;20151;-77
2024/01/28 05:27:34;;;;;;;4.23;1.57;;;;;;;;;;10457705;28;20044;-76
2024/01/28 05:32:48;;;;;;;1.83;1.20;;;;;;;;;;10447648;28;20063;-76
2024/01/28 05:37:56;;;;;;;4.43;1.50;;;;;;;;;;10471031;28;20044;-77
2024/01/28 05:43:24;;;;;;;5.65;2.75;;;;;;;;;;10489278;28;20137;-77
2024/01/28 05:48:29;;;;;;;1.83;1.07;;;;;;;;;;10491497;28;20056;-78
2024/01/28 05:53:42;;;;;;;2.70;1.20;;;;;;;;;;10471651;28;20044;-76
2024/01/28 05:59:11;;;;;;;1.97;0.97;;;;;;;;;;10487079;28;20077;-76
2024/01/28 06:04:16;;;;;;;2.47;0.93;;;;;;;;;;10508522;28;20074;-79
2024/01/28 06:09:25;;;;;;;4.60;1.80;;;;;;;;;;10493064;28;20506;-78
2024/01/28 06:14:32;;;;;;;1.83;1.00;;;;;;;;;;10499420;28;20048;-78
2024/01/28 06:19:37;;;;;;;2.13;1.07;;;;;;;;;;10478139;28;20045;-78
2024/01/28 06:24:45;;;;;;;2.23;1.47;;;;;;;;;;10486030;28;20036;-78
2024/01/28 06:29:51;;;;;;;4.83;2.00;;;;;;;;;;10490826;28;20070;-78
2024/01/28 06:34:57;;;;;;;6.87;2.80;;;;;;;;;;10516186;28;20044;-78
2024/01/28 06:40:10;;;;;;;8.73;2.60;;;;;;;;;;10487971;28;20078;-78
2024/01/28 06:45:19;;;;;;;7.03;2.80;;;;;;;;;;10477306;28;20060;-79
2024/01/28 06:50:31;;;;;;;1.70;1.37;;;;;;;;;;10491372;28;20602;-76
2024/01/28 06:55:41;;;;;;;3.23;1.90;;;;;;;;;;10490740;28;20051;-77
2024/01/28 07:00:53;;;;;;;4.80;1.97;;;;;;;;;;10487084;28;20044;-77
2024/01/28 07:06:04;;;;;;;4.27;2.10;;;;;;;;;;10474952;28;20115;-77
2024/01/28 07:11:11;;;;;;;3.87;1.73;;;;;;;;;;10484187;28;20061;-76
2024/01/28 07:16:20;;;;;;;6.70;2.80;;;;;;;;;;10466841;28;20052;-78
2024/01/28 07:21:33;;;;;;;5.97;1.90;;;;;;;;;;10480890;28;20105;-78
2024/01/28 07:26:51;;;;;;;2.63;1.38;;;;;;;;;;10477654;28;20171;-78
2024/01/28 07:32:01;;;;;;;5.75;3.22;;;;;;;;;;10462226;28;20433;-78
2024/01/28 07:37:08;;;;;;;7.82;2.25;;;;;;;;;;10466854;28;20051;-78
2024/01/28 07:42:19;;;;;;;5.82;2.92;;;;;;;;;;10484527;28;20055;-78
2024/01/28 07:47:31;;;;;;;1.63;1.25;;;;;;;;;;10469508;28;20069;-77
2024/01/28 07:52:36;;;;;;;2.63;1.90;;;;;;;;;;10467736;28;20063;-77
2024/01/28 08:03:12;;;;;;;4.03;2.33;;;;;;;;;;10484720;28;20612;-78
2024/01/28 08:08:17;;;;;;;5.90;3.38;;;;;;;;;;10488534;28;20043;-79
2024/01/28 08:13:51;;;;;;;5.40;2.97;;;;;;;;;;10479693;28;20045;-79
2024/01/28 08:18:56;;;;;;;;;;;;;;;;;;10470073;28;20502;-79
2024/01/28 08:24:08;;;;;;;7.00;3.58;;;;;;;;;;10470690;28;20293;-79
2024/01/28 08:29:14;;;;;;;4.85;2.00;;;;;;;;;;10472842;28;20040;-79
2024/01/28 08:34:18;;;;;;;3.65;2.65;;;;;;;;;;10484658;28;20132;-79
2024/01/28 08:39:26;;;;;;;2.88;2.33;;;;;;;;;;10454987;28;20048;-77
2024/01/28 08:44:30;;;;;;;3.15;2.45;;;;;;;;;;10478586;28;20102;-78
2024/01/28 08:49:35;;;;;;;3.33;2.38;;;;;;;;;;10485884;28;20195;-78
2024/01/28 08:54:47;;;;;;;2.60;1.98;;;;;;;;;;10478786;28;20135;-78
2024/01/28 08:59:57;;;;;;;3.47;2.10;;;;;;;;;;10456479;28;20051;-78
2024/01/28 09:05:12;;;;;;;3.45;2.10;;;;;;;;;;10479592;28;20218;-79
2024/01/28 09:10:24;;;;;;;2.65;1.90;;;;;;;;;;10459554;28;20041;-80
2024/01/28 09:15:46;;;;;;;2.70;2.20;;;;;;;;;;10480971;28;20047;-78
2024/01/28 09:20:51;;;;;;;4.00;2.23;;;;;;;;;;10469266;28;20154;-79
2024/01/28 09:26:00;;;;;;;3.05;2.08;;;;;;;;;;10474491;28;20394;-78
2024/01/28 09:31:11;;;;;;;3.80;2.22;;;;;;;;;;10472045;28;20049;-79
2024/01/28 09:36:16;;;;;;;3.10;2.00;;;;;;;;;;10457981;28;20047;-80
2024/01/28 09:41:24;;;;;;;3.20;2.63;;;;;;;;;;10450092;28;20541;-79
2024/01/28 09:46:29;;;;;;;5.72;2.88;;;;;;;;;;10467668;28;20133;-79
2024/01/28 09:51:39;;;;;;;4.75;3.30;;;;;;;;;;10474908;28;20474;-80
2024/01/28 09:56:45;;;;;;;5.03;2.88;;;;;;;;;;10469460;28;20052;-78
2024/01/28 10:01:52;;;;;;;3.20;2.13;;;;;;;;;;10473086;28;20408;-80
2024/01/28 10:06:58;;;;;;;2.20;2.00;;;;;;;;;;10456377;28;20049;-80
2024/01/28 10:12:09;;;;;;;2.35;1.88;;;;;;;;;;10479319;28;20561;-80
2024/01/28 10:17:15;;;;;;;2.10;2.00;;;;;;;;;;10472886;28;20080;-80
2024/01/28 10:22:26;;;;;;;3.67;2.00;;;;;;;;;;10466204;28;20699;-81
2024/01/28 10:27:33;;;;;;;;;;;;;;;;;;10476922;28;20053;-80
2024/01/28 10:32:48;;;;;;;1.98;1.77;;;;;;;;;;10477169;28;19928;-82
2024/01/28 10:37:56;;;;;;;2.78;1.88;;;;;;;;;;10461449;28;20052;-81
2024/01/28 10:43:03;;;;;;;1.80;1.70;;;;;;;;;;10477402;28;20036;-81
2024/01/28 10:48:13;;;;;;;2.25;1.85;;;;;;;;;;10481458;28;20056;-81
2024/01/28 10:53:19;;;;;;;3.28;2.47;;;;;;;;;;10483657;28;20119;-83
2024/01/28 10:58:30;;;;;;;2.63;1.77;;;;;;;;;;10475818;28;20092;-82
2024/01/28 11:03:41;;;;;;;3.47;2.38;;;;;;;;;;10446277;28;20090;-82
2024/01/28 11:08:53;;;;;;;2.58;2.17;;;;;;;;;;10478539;28;20103;-81
2024/01/28 11:14:27;;;;;;;2.85;2.00;;;;;;;;;;10464529;28;20496;-81
2024/01/28 11:19:40;;;;;;;2.13;1.85;;;;;;;;;;10473082;28;20043;-81
2024/01/28 11:24:50;;;;;;;3.30;2.00;;;;;;;;;;10462087;28;20036;-81
2024/01/28 11:30:04;;;;;;;2.80;2.10;;;;;;;;;;10464655;28;20521;-81
2024/01/28 11:35:26;;;;;;;2.63;1.92;;;;;;;;;;10471588;28;20157;-80
2024/01/28 11:40:43;;;;;;;2.03;1.90;;;;;;;;;;10490097;28;20132;-83
2024/01/28 11:46:09;;;;;;;3.67;2.13;;;;;;;;;;10478033;28;20367;-80
2024/01/28 11:51:26;;;;;;;3.22;2.40;;;;;;;;;;10477822;28;20131;-78
2024/01/28 11:56:31;;;;;;;5.28;2.35;;;;;;;;;;10479779;28;20592;-80
2024/01/28 12:01:45;;;;;;;3.55;2.55;;;;;;;;;;10461317;28;20078;-80
2024/01/28 12:07:03;;;;;;;2.53;2.10;;;;;;;;;;10460361;28;20044;-81
2024/01/28 12:12:21;;;;;;;4.80;2.38;;;;;;;;;;10462016;28;20045;-80
2024/01/28 12:17:25;;;;;;;3.65;2.55;;;;;;;;;;10462906;28;20040;-80
2024/01/28 12:28:13;;;;;;;2.67;2.42;;;;;;;;;;10482060;28;20129;-80
2024/01/28 12:33:31;;;;;;;2.47;2.25;;;;;;;;;;10475953;28;20041;-80
2024/01/28 12:44:36;;;;;;;2.63;2.00;;;;;;;;;;10478978;28;20068;-80
2024/01/28 12:49:42;;;;;;;2.67;2.00;;;;;;;;;;10478236;28;20064;-79
2024/01/28 12:54:59;;;;;;;3.38;2.63;;;;;;;;;;10462036;28;20518;-78
2024/01/28 13:00:20;;;;;;;3.05;1.90;;;;;;;;;;10478747;28;20044;-78
2024/01/28 13:05:49;;;;;;;3.00;2.13;;;;;;;;;;10444828;28;20453;-78
2024/01/28 13:11:00;;;;;;;3.10;2.33;;;;;;;;;;10472776;28;20518;-79
2024/01/28 13:16:17;;;;;;;3.60;2.10;;;;;;;;;;10479644;28;20032;-78
2024/01/28 13:21:28;;;;;;;3.20;1.85;;;;;;;;;;10478355;28;20123;-78
2024/01/28 13:26:35;;;;;;;2.92;1.70;;;;;;;;;;10460886;28;20398;-78
2024/01/28 13:31:41;;;;;;;1.90;1.70;;;;;;;;;;10478133;28;20062;-79
2024/01/28 13:36:52;;;;;;;1.80;1.70;;;;;;;;;;10461217;28;20072;-79
2024/01/28 13:42:14;;;;;;;2.00;1.75;;;;;;;;;;10484463;28;20036;-79
2024/01/28 13:47:22;;;;;;;1.85;1.42;;;;;;;;;;10480486;28;20123;-79
2024/01/28 13:52:46;;;;;;;1.50;1.30;;;;;;;;;;10484392;28;20182;-79
2024/01/28 13:57:53;;;;;;;1.90;1.30;;;;;;;;;;10474630;28;20048;-79
2024/01/28 14:03:01;;;;;;;0.80;0.75;;;;;;;;;;10486652;28;20048;-79
2024/01/28 14:08:07;;;;;;;;;;;;;;;;;;10482773;28;20401;-79
2024/01/28 14:13:19;;;;;;;1.35;1.10;;;;;;;;;;10480037;28;20005;-79
2024/01/28 14:18:27;;;;;;;1.10;0.90;;;;;;;;;;10465682;28;20059;-79
2024/01/28 14:23:35;;;;;;;1.38;1.00;;;;;;;;;;10476728;28;20102;-79
2024/01/28 14:28:50;;;;;;;2.05;0.98;;;;;;;;;;10477986;28;20047;-78
2024/01/28 14:34:05;;;;;;;1.77;0.85;;;;;;;;;;10468827;28;20616;-79
2024/01/28 14:39:14;;;;;;;2.83;1.30;;;;;;;;;;10461968;28;20049;-78
2024/01/28 14:44:54;;;;;;;1.65;0.95;;;;;;;;;;10474997;28;20078;-78
2024/01/28 14:49:57;;;;;;;1.90;0.90;;;;;;;;;;10490656;28;20124;-77
2024/01/28 14:55:08;;;;;;;5.07;1.00;;;;;;;;;;10483803;28;20052;-78
2024/01/28 15:00:19;;;;;;;2.03;0.93;;;;;;;;;;10485208;28;20699;-78
2024/01/28 15:05:25;;;;;;;1.88;1.20;;;;;;;;;;10481816;28;20466;-78
2024/01/28 15:10:32;;;;;;;3.67;1.65;;;;;;;;;;10488453;28;20422;-77
2024/01/28 15:15:42;;;;;;;3.95;1.73;;;;;;;;;;10483804;28;20117;-78
2024/01/28 15:20:45;;;;;;;3.72;2.10;;;;;;;;;;10487408;28;20060;-80
2024/01/28 15:25:55;;;;;;;5.97;2.28;;;;;;;;;;10487157;28;20047;-76
2024/01/28 15:31:10;;;;;;;5.43;2.20;;;;;;;;;;10487243;28;20533;-78
2024/01/28 15:36:19;;;;;;;8.93;2.30;;;;;;;;;;10465821;28;20417;-78
2024/01/28 15:41:25;;;;;;;6.70;2.28;;;;;;;;;;10460981;28;20123;-77
2024/01/28 15:46:32;;;;;;;3.92;2.00;;;;;;;;;;10462112;28;20623;-77
2024/01/28 15:51:39;;;;;;;7.43;2.58;;;;;;;;;;10482256;28;20470;-77
2024/01/28 15:56:44;;;;;;;6.75;2.95;;;;;;;;;;10464326;28;20162;-76
2024/01/28 16:01:49;;;;;;;;;;;;;;;;;;10472601;28;20113;-76
2024/01/28 16:06:56;;;;;;;7.57;3.53;;;;;;;;;;10479166;28;20035;-76
2024/01/28 16:12:05;;;;;;;8.80;3.45;;;;;;;;;;10461343;28;20388;-77
2024/01/28 16:17:18;;;;;;;7.90;2.72;;;;;;;;;;10439536;28;20130;-76
2024/01/28 16:22:27;;;;;;;7.60;2.53;;;;;;;;;;10463851;28;20072;-77
2024/01/28 16:27:38;;;;;;;6.03;2.70;;;;;;;;;;10485509;28;20571;-76
2024/01/28 16:32:41;;;;;;;6.90;3.22;;;;;;;;;;10464757;28;20064;-76
2024/01/28 16:37:56;;;;;;;8.40;2.65;;;;;;;;;;10461027;28;20053;-76
2024/01/28 16:43:01;;;;;;;7.35;2.67;;;;;;;;;;10460038;28;20171;-76
2024/01/28 16:48:11;;;;;;;6.45;3.03;;;;;;;;;;10457619;28;20048;-77
2024/01/28 16:53:24;;;;;;;8.70;2.75;;;;;;;;;;10467260;28;20041;-77
2024/01/28 16:58:34;;;;;;;5.75;2.58;;;;;;;;;;10435313;28;20525;-77
2024/01/28 17:03:42;;;;;;;5.60;2.90;;;;;;;;;;10474616;28;20052;-77
2024/01/28 17:08:48;;;;;;;8.93;3.30;;;;;;;;;;10470394;28;20788;-76
2024/01/28 17:13:58;;;;;;;8.55;3.90;;;;;;;;;;10454470;28;20566;-76
2024/01/28 17:19:02;;;;;;;8.60;3.80;;;;;;;;;;10474842;28;20205;-76
2024/01/28 17:24:14;;;;;;;7.70;3.00;;;;;;;;;;10465438;28;20189;-76
2024/01/28 17:29:29;;;;;;;8.52;3.05;;;;;;;;;;10455270;28;20352;-75
2024/01/28 17:34:38;;;;;;;9.15;3.63;;;;;;;;;;10473284;28;20200;-75
2024/01/28 17:39:52;;;;;;;5.88;2.60;;;;;;;;;;10477695;28;20048;-76
2024/01/28 17:44:58;;;;;;;6.15;2.58;;;;;;;;;;10439579;28;20091;-76
2024/01/28 17:50:06;;;;;;;5.93;2.55;;;;;;;;;;10456673;28;20442;-77
2024/01/28 17:55:17;;;;;;;5.28;2.53;;;;;;;;;;10472841;28;21527;-75
2024/01/28 18:00:24;;;;;;;6.72;2.58;;;;;;;;;;10455078;28;20501;-75
2024/01/28 18:05:30;;;;;;;8.25;2.70;;;;;;;;;;10453805;28;20045;-76
2024/01/28 18:10:40;;;;;;;5.35;2.65;;;;;;;;;;10478948;28;20045;-75
2024/01/28 18:15:49;;;;;;;9.98;3.40;;;;;;;;;;10478433;28;20047;-75
2024/01/28 18:26:32;;;;;;;5.90;2.83;;;;;;;;;;10476142;28;20182;-76
2024/01/28 18:31:40;;;;;;;7.15;2.75;;;;;;;;;;10487557;28;20052;-76
2024/01/28 18:37:05;;;;;;;6.93;3.15;;;;;;;;;;10487371;28;20118;-76
2024/01/28 18:42:35;;;;;;;5.53;2.75;;;;;;;;;;10478260;28;20094;-75
2024/01/28 18:47:50;;;;;;;8.10;3.95;;;;;;;;;;10470572;28;20068;-75
2024/01/28 18:52:59;;;;;;;9.88;3.15;;;;;;;;;;10476526;28;20519;-74
2024/01/28 18:58:06;;;;;;;8.93;3.58;;;;;;;;;;10471578;28;20044;-75
2024/01/28 19:03:17;;;;;;;8.85;3.38;;;;;;;;;;10452886;28;20063;-77
2024/01/28 19:08:22;;;;;;;7.20;3.22;;;;;;;;;;10484999;28;20486;-75
2024/01/28 19:13:27;;;;;;;8.10;3.53;;;;;;;;;;10449598;28;20044;-76
2024/01/28 19:18:42;;;;;;;11.02;3.70;;;;;;;;;;10490413;28;20556;-76
2024/01/28 19:23:52;;;;;;;8.77;3.63;;;;;;;;;;10474111;28;21244;-76
2024/01/28 19:29:11;;;;;;;17.40;4.65;;;;;;;;;;10473052;28;20497;-76
2024/01/28 19:34:18;;;;;;;10.07;4.13;;;;;;;;;;10495466;28;20066;-76
2024/01/28 19:39:23;;;;;;;7.45;3.67;;;;;;;;;;10484741;28;20076;-76
2024/01/28 19:44:30;;;;;;;11.30;4.55;;;;;;;;;;10470252;28;20044;-77
2024/01/28 19:49:36;;;;;;;8.65;4.10;;;;;;;;;;10481884;28;20048;-76
2024/01/28 19:54:42;;;;;;;10.07;3.75;;;;;;;;;;10493605;28;20093;-76
2024/01/28 19:59:48;;;;;;;10.75;4.22;;;;;;;;;;10475235;28;20047;-76
2024/01/28 20:04:58;;;;;;;5.80;2.65;;;;;;;;;;10468622;28;20041;-76
2024/01/28 20:10:03;;;;;;;11.20;4.43;;;;;;;;;;10468613;28;20102;-73
2024/01/28 20:15:11;;;;;;;12.30;4.97;;;;;;;;;;10466843;28;20569;-75
2024/01/28 20:20:19;;;;;;;5.20;2.67;;;;;;;;;;10487295;28;20044;-73
2024/01/28 20:25:23;;;;;;;13.13;4.82;;;;;;;;;;10489335;28;20048;-74
2024/01/28 20:30:31;;;;;;;;;;;;;;;;;;10487721;28;20120;-73
2024/01/28 20:35:37;;;;;;;1.00;0.70;;;;;;;;;;10467665;28;19920;-74
2024/01/28 20:46:05;;;;;;;7.32;2.92;;;;;;;;;;10482631;28;20040;-75
2024/01/28 20:51:13;;;;;;;4.28;2.60;;;;;;;;;;10472093;28;20044;-75
2024/01/28 20:56:32;;;;;;;2.25;1.20;;;;;;;;;;10487214;28;20133;-75
2024/01/28 21:01:46;;;;;;;5.70;3.13;;;;;;;;;;10470970;28;20036;-76
2024/01/28 21:06:57;;;;;;;4.57;1.48;;;;;;;;;;10483780;28;20040;-76
2024/01/28 21:12:02;;;;;;;4.85;2.33;;;;;;;;;;10469562;28;20201;-75
2024/01/28 21:17:16;;;;;;;2.13;1.63;;;;;;;;;;10472197;28;20047;-76
2024/01/28 21:22:23;;;;;;;10.10;2.05;;;;;;;;;;10461425;28;20489;-76
2024/01/28 21:27:27;;;;;;;6.13;2.05;;;;;;;;;;10475586;28;20047;-75
2024/01/28 21:32:33;;;;;;;11.70;4.65;;;;;;;;;;10455328;28;21389;-75
2024/01/28 21:37:39;;;;;;;8.25;3.50;;;;;;;;;;10478076;28;20105;-76
2024/01/28 21:42:48;;;;;;;10.10;3.30;;;;;;;;;;10455921;28;20068;-75
2024/01/28 21:47:57;;;;;;;25.35;7.13;;;;;;;;;;10453044;28;20488;-77
2024/01/28 21:53:06;;;;;;;10.23;4.05;;;;;;;;;;10473485;28;20052;-78
2024/01/28 21:58:11;;;;;;;2.38;1.27;;;;;;;;;;10469467;28;20143;-75
2024/01/28 22:03:21;;;;;;;3.70;1.55;;;;;;;;;;10468201;28;20053;-76
2024/01/28 22:08:29;;;;;;;5.47;2.35;;;;;;;;;;10476022;28;20048;-75
2024/01/28 22:13:33;;;;;;;2.20;1.35;;;;;;;;;;10457432;28;20106;-76
2024/01/28 22:18:46;;;;;;;1.80;1.27;;;;;;;;;;10472133;28;20525;-75
2024/01/28 22:23:51;;;;;;;3.22;1.67;;;;;;;;;;10451755;28;20041;-75
2024/01/28 22:28:58;;;;;;;0.70;0.70;;;;;;;;;;10458847;28;20198;-76
2024/01/28 22:34:03;;;;;;;1.95;0.73;;;;;;;;;;10469149;28;23006;-75
2024/01/28 22:39:12;;;;;;;8.38;2.85;;;;;;;;;;10472994;28;20041;-75
2024/01/28 22:44:16;;;;;;;6.40;2.63;;;;;;;;;;10469978;28;20477;-76
2024/01/28 22:49:27;;;;;;;5.57;2.77;;;;;;;;;;10457952;28;20337;-75
2024/01/28 22:54:34;;;;;;;1.07;0.67;;;;;;;;;;10465713;28;20056;-76
2024/01/28 22:59:42;;;;;;;6.97;2.93;;;;;;;;;;10481890;28;20112;-75
2024/01/28 23:04:57;;;;;;;6.93;2.47;;;;;;;;;;10475337;28;20565;-76
2024/01/28 23:10:13;;;;;;;4.53;2.03;;;;;;;;;;10478319;28;20059;-77
2024/01/28 23:15:18;;;;;;;4.53;1.30;;;;;;;;;;10461072;28;20403;-75
2024/01/28 23:20:32;;;;;;;6.13;2.20;;;;;;;;;;10462397;28;20044;-75
2024/01/28 23:25:40;;;;;;;5.20;2.37;;;;;;;;;;10477100;28;20616;-76
2024/01/28 23:30:52;;;;;;;2.70;1.17;;;;;;;;;;10446301;28;20036;-77
2024/01/28 23:35:59;;;;;;;1.13;1.07;;;;;;;;;;10480066;28;20876;-76
2024/01/28 23:41:22;;;;;;;9.03;2.50;;;;;;;;;;10461615;28;20051;-76
2024/01/28 23:46:27;;;;;;;6.82;3.13;;;;;;;;;;10457835;28;20036;-76
2024/01/28 23:51:36;;;;;;;8.27;3.07;;;;;;;;;;10482623;28;20060;-76
2024/01/28 23:56:41;;;;;;;3.83;1.53;;;;;;;;;;10452450;28;20036;-74
